createdAt,value
2022-11-05T00:02:39.393Z,101096.78
2022-11-05T00:05:25.650Z,101093.50
2022-11-05T00:08:12.449Z,101097.34
2022-11-05T00:10:40.227Z,101102.16
2022-11-05T00:13:36.631Z,101103.16
2022-11-05T00:16:36.482Z,101103.34
2022-11-05T00:19:10.155Z,101112.63
2022-11-05T00:22:02.144Z,101120.25
2022-11-05T00:24:47.347Z,101125.41
2022-11-05T00:27:14.923Z,101126.09
2022-11-05T00:29:43.830Z,101125.22
2022-11-05T00:32:11.420Z,101122.66
2022-11-05T00:34:39.033Z,101129.66
2022-11-05T00:37:06.841Z,101133.81
2022-11-05T00:39:34.453Z,101139.81
2022-11-05T00:42:21.627Z,101135.41
2022-11-05T00:45:02.638Z,101138.31
2022-11-05T00:47:48.037Z,101137.56
2022-11-05T00:50:15.816Z,101143.66
2022-11-05T00:52:59.503Z,101142.69
2022-11-05T00:55:34.629Z,101141.06
2022-11-05T00:58:03.908Z,101143.78
2022-11-05T01:00:35.074Z,101137.88
2022-11-05T01:03:05.166Z,101147.16
2022-11-05T01:05:34.248Z,101130.13
2022-11-05T01:08:02.263Z,101151.28
2022-11-05T01:10:30.215Z,101148.91
2022-11-05T01:12:58.991Z,101136.34
2022-11-05T01:15:26.702Z,101139.66
2022-11-05T01:17:55.604Z,101149.41
2022-11-05T01:20:23.280Z,101147.88
2022-11-05T01:22:50.850Z,101156.19
2022-11-05T01:25:18.671Z,101143.53
2022-11-05T01:27:46.581Z,101162.22
2022-11-05T01:30:15.026Z,101156.03
2022-11-05T01:32:42.611Z,101155.28
2022-11-05T01:35:18.335Z,101161.28
2022-11-05T01:37:46.672Z,101159.63
2022-11-05T01:40:15.978Z,101142.44
2022-11-05T01:42:43.655Z,101162.19
2022-11-05T01:45:17.868Z,101118.84
2022-11-05T01:48:01.582Z,101164.13
2022-11-05T01:50:38.450Z,101159.88
2022-11-05T01:53:13.996Z,101172.72
2022-11-05T01:55:45.103Z,101167.69
2022-11-05T01:58:16.027Z,101148.72
2022-11-05T02:00:44.394Z,101168.56
2022-11-05T02:03:14.133Z,101171.28
2022-11-05T02:05:43.986Z,101174.66
2022-11-05T02:08:20.493Z,101175.50
2022-11-05T02:10:49.507Z,101172.91
2022-11-05T02:13:17.064Z,101172.16
2022-11-05T02:15:54.804Z,101141.19
2022-11-05T02:18:32.459Z,101178.06
2022-11-05T02:21:18.431Z,101175.59
2022-11-05T02:24:26.244Z,101177.31
2022-11-05T02:27:08.946Z,101177.16
2022-11-05T02:30:20.395Z,101173.94
2022-11-05T02:33:19.841Z,101178.31
2022-11-05T02:36:11.607Z,101172.16
2022-11-05T02:38:44.126Z,101164.47
2022-11-05T02:41:19.502Z,101179.94
2022-11-05T02:43:56.550Z,101167.16
2022-11-05T02:46:35.191Z,101178.28
2022-11-05T02:49:14.477Z,101172.28
2022-11-05T02:51:49.043Z,101181.59
2022-11-05T02:54:22.801Z,101179.16
2022-11-05T02:56:53.600Z,101176.50
2022-11-05T02:59:21.238Z,101174.81
2022-11-05T03:01:52.224Z,101180.78
2022-11-05T03:04:22.817Z,101170.44
2022-11-05T03:07:05.327Z,101171.38
2022-11-05T03:10:02.159Z,101183.31
2022-11-05T03:12:39.101Z,101174.81
2022-11-05T03:15:17.463Z,101181.66
2022-11-05T03:18:01.972Z,101180.75
2022-11-05T03:20:36.315Z,101181.50
2022-11-05T03:23:10.375Z,101173.91
2022-11-05T03:25:42.810Z,101179.22
2022-11-05T03:28:11.884Z,101190.22
2022-11-05T03:30:41.945Z,101195.38
2022-11-05T03:33:17.180Z,101192.00
2022-11-05T03:35:48.066Z,101187.75
2022-11-05T03:38:21.357Z,101199.78
2022-11-05T03:40:53.627Z,101205.00
2022-11-05T03:43:24.512Z,101190.50
2022-11-05T03:45:56.620Z,101202.50
2022-11-05T03:48:29.556Z,101200.66
2022-11-05T03:51:03.652Z,101204.94
2022-11-05T03:53:37.557Z,101204.94
2022-11-05T03:56:10.010Z,101198.19
2022-11-05T03:58:41.789Z,101203.19
2022-11-05T04:01:09.857Z,101204.97
2022-11-05T04:03:39.064Z,101203.16
2022-11-05T04:06:26.266Z,101198.09
2022-11-05T04:09:11.576Z,101181.94
2022-11-05T04:11:56.854Z,101213.63
2022-11-05T04:14:26.147Z,101217.97
2022-11-05T04:17:09.921Z,101217.94
2022-11-05T04:19:58.137Z,101220.56
2022-11-05T04:22:44.908Z,101229.25
2022-11-05T04:25:13.548Z,101234.28
2022-11-05T04:27:41.372Z,101209.38
2022-11-05T04:30:21.609Z,101235.16
2022-11-05T04:33:06.899Z,101224.06
2022-11-05T04:35:37.899Z,101234.34
2022-11-05T04:38:07.428Z,101239.56
2022-11-05T04:40:35.868Z,101236.13
2022-11-05T04:43:03.943Z,101241.25
2022-11-05T04:45:34.171Z,101244.75
2022-11-05T04:48:01.816Z,101247.38
2022-11-05T04:50:29.813Z,101251.59
2022-11-05T04:52:58.812Z,101244.69
2022-11-05T04:55:26.968Z,101243.78
2022-11-05T04:57:55.966Z,101247.28
2022-11-05T05:00:25.105Z,101244.66
2022-11-05T05:02:52.936Z,101252.53
2022-11-05T05:05:21.910Z,101217.31
2022-11-05T05:07:49.503Z,101243.09
2022-11-05T05:10:18.849Z,101249.06
2022-11-05T05:12:46.434Z,101255.09
2022-11-05T05:15:14.229Z,101257.63
2022-11-05T05:17:41.831Z,101248.22
2022-11-05T05:20:41.610Z,101251.69
2022-11-05T05:23:09.384Z,101255.13
2022-11-05T05:25:38.509Z,101254.22
2022-11-05T05:28:06.352Z,101259.41
2022-11-05T05:30:33.909Z,101261.94
2022-11-05T05:33:03.753Z,101257.63
2022-11-05T05:35:31.487Z,101256.81
2022-11-05T05:37:59.111Z,101259.34
2022-11-05T05:40:27.519Z,101273.94
2022-11-05T05:42:56.792Z,101266.22
2022-11-05T05:45:24.418Z,101261.97
2022-11-05T05:47:51.977Z,101269.66
2022-11-05T05:50:19.537Z,101261.09
2022-11-05T05:52:47.112Z,101286.91
2022-11-05T05:55:15.293Z,101281.69
2022-11-05T05:57:42.859Z,101267.13
2022-11-05T06:00:13.826Z,101283.41
2022-11-05T06:02:41.653Z,101266.28
2022-11-05T06:05:11.072Z,101276.59
2022-11-05T06:07:38.675Z,101286.06
2022-11-05T06:10:07.367Z,101295.47
2022-11-05T06:12:34.966Z,101293.78
2022-11-05T06:15:04.112Z,101303.22
2022-11-05T06:17:34.009Z,101302.38
2022-11-05T06:20:01.755Z,101302.34
2022-11-05T06:22:29.433Z,101296.31
2022-11-05T06:24:56.984Z,101310.09
2022-11-05T06:27:24.608Z,101305.78
2022-11-05T06:29:52.181Z,101303.25
2022-11-05T06:32:19.830Z,101308.38
2022-11-05T06:34:48.787Z,101293.72
2022-11-05T06:37:16.456Z,101311.75
2022-11-05T06:39:44.053Z,101316.97
2022-11-05T06:42:18.286Z,101324.69
2022-11-05T06:44:46.453Z,101315.22
2022-11-05T06:47:14.079Z,101329.00
2022-11-05T06:49:41.702Z,101325.56
2022-11-05T06:52:10.649Z,101323.84
2022-11-05T06:54:38.282Z,101318.69
2022-11-05T06:57:06.180Z,101321.28
2022-11-05T06:59:34.368Z,101335.88
2022-11-05T07:02:02.144Z,101320.41
2022-11-05T07:04:29.750Z,101323.84
2022-11-05T07:06:57.330Z,101328.16
2022-11-05T07:09:26.280Z,101336.72
2022-11-05T07:11:53.912Z,101341.88
2022-11-05T07:14:21.488Z,101336.75
2022-11-05T07:16:49.104Z,101332.44
2022-11-05T07:19:16.692Z,101340.16
2022-11-05T07:21:44.268Z,101334.00
2022-11-05T07:24:11.987Z,101336.72
2022-11-05T07:26:40.917Z,101337.25
2022-11-05T07:29:08.525Z,101331.56
2022-11-05T07:31:36.217Z,101320.38
2022-11-05T07:34:03.941Z,101328.22
2022-11-05T07:36:31.618Z,101329.28
2022-11-05T07:39:00.655Z,101327.59
2022-11-05T07:41:29.236Z,101322.97
2022-11-05T07:43:58.234Z,101328.53
2022-11-05T07:46:25.829Z,101259.25
2022-11-05T07:48:53.419Z,101331.63
2022-11-05T07:51:21.061Z,101326.16
2022-11-05T07:53:49.162Z,101322.06
2022-11-05T07:56:16.922Z,101324.41
2022-11-05T07:58:44.513Z,101313.53
2022-11-05T08:01:13.537Z,101310.78
2022-11-05T08:03:41.440Z,101327.84
2022-11-05T08:06:09.092Z,101314.06
2022-11-05T08:08:36.757Z,101321.25
2022-11-05T08:11:05.328Z,101318.00
2022-11-05T08:13:33.119Z,101315.16
2022-11-05T08:16:01.945Z,101317.47
2022-11-05T08:18:32.312Z,101311.84
2022-11-05T08:21:01.733Z,101316.09
2022-11-05T08:23:31.103Z,101313.94
2022-11-05T08:25:59.746Z,101297.13
2022-11-05T08:28:27.599Z,101315.44
2022-11-05T08:30:57.404Z,101320.59
2022-11-05T08:33:25.834Z,101336.19
2022-11-05T08:35:54.758Z,101336.00
2022-11-05T08:38:22.358Z,101345.19
2022-11-05T08:40:56.455Z,101349.22
2022-11-05T08:43:24.346Z,101348.00
2022-11-05T08:45:51.952Z,101346.00
2022-11-05T08:48:19.950Z,101368.41
2022-11-05T08:50:49.246Z,101368.09
2022-11-05T08:53:18.388Z,101323.88
2022-11-05T08:55:47.766Z,101374.44
2022-11-05T08:58:17.601Z,101340.78
2022-11-05T09:00:47.114Z,101379.28
2022-11-05T09:03:15.753Z,101381.63
2022-11-05T09:05:43.881Z,101377.38
2022-11-05T09:08:13.398Z,101378.56
2022-11-05T09:10:43.046Z,101388.91
2022-11-05T09:13:17.936Z,101387.38
2022-11-05T09:15:47.008Z,101389.59
2022-11-05T09:18:15.776Z,101396.38
2022-11-05T09:20:43.577Z,101397.91
2022-11-05T09:23:12.727Z,101401.09
2022-11-05T09:25:41.882Z,101383.09
2022-11-05T09:28:15.903Z,101369.94
2022-11-05T09:30:46.403Z,101418.50
2022-11-05T09:33:14.584Z,101424.78
2022-11-05T09:35:42.748Z,101406.09
2022-11-05T09:38:10.596Z,101419.91
2022-11-05T09:40:44.072Z,101422.31
2022-11-05T09:43:18.970Z,101425.84
2022-11-05T09:45:50.419Z,101420.31
2022-11-05T09:48:20.871Z,101432.66
2022-11-05T09:50:49.686Z,101428.53
2022-11-05T09:53:19.722Z,101430.91
2022-11-05T09:55:50.921Z,101423.88
2022-11-05T09:58:28.364Z,101431.56
2022-11-05T10:00:57.203Z,101422.28
2022-11-05T10:03:27.816Z,101428.00
2022-11-05T10:06:01.763Z,101437.34
2022-11-05T10:08:33.730Z,101404.03
2022-11-05T10:11:08.334Z,101436.56
2022-11-05T10:13:41.157Z,101438.13
2022-11-05T10:16:20.896Z,101438.78
2022-11-05T10:18:53.040Z,101433.50
2022-11-05T10:21:44.301Z,101443.09
2022-11-05T10:24:15.209Z,101438.78
2022-11-05T10:26:47.566Z,101445.03
2022-11-05T10:29:21.396Z,101446.38
2022-11-05T10:31:49.713Z,101443.84
2022-11-05T10:34:17.863Z,101443.81
2022-11-05T10:36:45.535Z,101443.06
2022-11-05T10:39:15.065Z,101452.50
2022-11-05T10:41:59.220Z,101450.19
2022-11-05T10:44:35.198Z,101449.88
2022-11-05T10:47:20.579Z,101446.03
2022-11-05T10:49:57.678Z,101443.59
2022-11-05T10:52:29.180Z,101447.00
2022-11-05T10:55:01.370Z,101446.75
2022-11-05T10:57:35.794Z,101438.66
2022-11-05T11:00:28.766Z,101455.25
2022-11-05T11:02:59.504Z,101447.25
2022-11-05T11:05:29.940Z,101440.81
2022-11-05T11:08:02.279Z,101441.34
2022-11-05T11:10:33.910Z,101440.94
2022-11-05T11:13:03.241Z,101445.63
2022-11-05T11:15:33.473Z,101439.22
2022-11-05T11:18:25.614Z,101443.94
2022-11-05T11:20:53.384Z,101433.50
2022-11-05T11:23:20.953Z,101437.50
2022-11-05T11:25:53.099Z,101435.75
2022-11-05T11:28:26.744Z,101433.09
2022-11-05T11:31:07.772Z,101433.56
2022-11-05T11:33:37.687Z,101431.97
2022-11-05T11:36:06.646Z,101433.53
2022-11-05T11:38:36.993Z,101429.84
2022-11-05T11:41:23.847Z,101428.72
2022-11-05T11:43:57.066Z,101431.13
2022-11-05T11:46:24.765Z,101431.06
2022-11-05T11:48:52.630Z,101433.28
2022-11-05T11:51:31.076Z,101401.75
2022-11-05T11:53:59.992Z,101421.75
2022-11-05T11:56:28.982Z,101419.72
2022-11-05T11:59:02.143Z,101431.31
2022-11-05T12:01:49.708Z,101419.19
2022-11-05T12:04:30.234Z,101415.47
2022-11-05T12:07:09.631Z,101424.50
2022-11-05T12:09:54.089Z,101416.25
2022-11-05T12:12:27.041Z,101418.63
2022-11-05T12:14:59.624Z,101410.41
2022-11-05T12:17:40.038Z,101406.38
2022-11-05T12:20:26.013Z,101405.16
2022-11-05T12:23:08.481Z,101311.97
2022-11-05T12:25:45.703Z,101418.06
2022-11-05T12:28:57.871Z,101416.81
2022-11-05T12:31:35.707Z,101417.22
2022-11-05T12:34:17.603Z,101421.84
2022-11-05T12:37:03.870Z,101417.28
2022-11-05T12:40:08.563Z,101421.66
2022-11-05T12:42:52.880Z,101413.44
2022-11-05T12:45:30.712Z,101408.22
2022-11-05T12:48:12.822Z,101415.88
2022-11-05T12:50:46.126Z,101428.34
2022-11-05T12:53:32.403Z,101429.47
2022-11-05T12:56:04.610Z,101430.03
2022-11-05T12:58:37.375Z,101435.66
2022-11-05T13:01:12.803Z,101422.63
2022-11-05T13:03:46.081Z,101431.50
2022-11-05T13:06:16.964Z,101426.88
2022-11-05T13:08:53.335Z,101432.78
2022-11-05T13:11:26.387Z,101436.81
2022-11-05T13:14:12.928Z,101417.47
2022-11-05T13:16:44.792Z,101431.28
2022-11-05T13:19:19.921Z,101424.56
2022-11-05T13:21:51.991Z,101429.31
2022-11-05T13:24:24.511Z,101429.44
2022-11-05T13:26:56.396Z,101428.06
2022-11-05T13:29:32.323Z,101426.78
2022-11-05T13:32:05.656Z,101413.38
2022-11-05T13:34:37.546Z,101422.22
2022-11-05T13:37:26.166Z,101409.44
2022-11-05T13:39:57.058Z,101416.94
2022-11-05T13:42:58.419Z,101415.69
2022-11-05T13:45:55.238Z,101426.47
2022-11-05T13:48:39.476Z,101425.88
2022-11-05T13:51:39.121Z,101413.78
2022-11-05T13:54:44.477Z,101408.88
2022-11-05T13:57:32.160Z,101410.69
2022-11-05T14:00:08.016Z,101410.97
2022-11-05T14:02:40.144Z,101412.56
2022-11-05T14:05:20.917Z,101413.31
2022-11-05T14:07:50.437Z,101404.72
2022-11-05T14:10:26.914Z,101420.34
2022-11-05T14:12:56.717Z,101418.91
2022-11-05T14:15:28.375Z,101410.81
2022-11-05T14:17:59.280Z,101414.03
2022-11-05T14:20:40.409Z,101424.09
2022-11-05T14:23:47.552Z,101419.13
2022-11-05T14:26:20.617Z,101421.69
2022-11-05T14:28:50.527Z,101428.16
2022-11-05T14:31:54.627Z,101428.72
2022-11-05T14:34:24.772Z,101418.47
2022-11-05T14:37:22.601Z,101435.94
2022-11-05T14:39:51.004Z,101435.75
2022-11-05T14:42:25.275Z,101427.69
2022-11-05T14:45:08.855Z,101417.19
2022-11-05T14:47:39.738Z,101442.75
2022-11-05T14:50:19.062Z,101441.31
2022-11-05T14:52:53.156Z,101438.09
2022-11-05T14:55:29.344Z,101438.84
2022-11-05T14:58:28.156Z,101451.53
2022-11-05T15:00:57.583Z,101432.69
2022-11-05T15:04:00.419Z,101457.84
2022-11-05T15:06:31.406Z,101456.63
2022-11-05T15:09:13.771Z,101456.38
2022-11-05T15:11:46.600Z,101456.16
2022-11-05T15:14:24.145Z,101455.03
2022-11-05T15:16:54.452Z,101459.81
2022-11-05T15:19:25.906Z,101424.00
2022-11-05T15:21:57.670Z,101457.00
2022-11-05T15:24:28.108Z,101456.19
2022-11-05T15:27:03.990Z,101445.59
2022-11-05T15:29:34.184Z,101459.72
2022-11-05T15:32:02.074Z,101463.41
2022-11-05T15:34:31.978Z,101454.41
2022-11-05T15:37:01.688Z,101467.19
2022-11-05T15:39:39.493Z,101463.25
2022-11-05T15:42:13.327Z,101470.66
2022-11-05T15:44:44.164Z,101469.38
2022-11-05T15:47:21.617Z,101459.69
2022-11-05T15:49:51.756Z,101453.94
2022-11-05T15:52:21.613Z,101467.25
2022-11-05T15:55:07.746Z,101471.41
2022-11-05T15:57:40.026Z,101460.84
2022-11-05T16:00:18.175Z,101473.25
2022-11-05T16:02:53.645Z,101469.00
2022-11-05T16:05:22.190Z,101460.88
2022-11-05T16:07:50.091Z,101461.72
2022-11-05T16:10:20.615Z,101455.94
2022-11-05T16:12:48.544Z,101463.94
2022-11-05T16:15:23.840Z,101456.94
2022-11-05T16:17:54.552Z,101465.19
2022-11-05T16:20:26.356Z,101461.34
2022-11-05T16:22:55.783Z,101462.72
2022-11-05T16:25:38.196Z,101471.28
2022-11-05T16:28:08.223Z,101465.50
2022-11-05T16:30:37.166Z,101473.00
2022-11-05T16:33:07.437Z,101465.22
2022-11-05T16:35:40.991Z,101470.75
2022-11-05T16:38:13.044Z,101437.69
2022-11-05T16:40:41.050Z,101458.97
2022-11-05T16:43:18.263Z,101464.72
2022-11-05T16:45:48.201Z,101467.59
2022-11-05T16:48:17.236Z,101471.94
2022-11-05T16:50:45.970Z,101466.34
2022-11-05T16:53:13.838Z,101470.47
2022-11-05T16:55:43.552Z,101456.59
2022-11-05T16:58:19.625Z,101469.94
2022-11-05T17:00:50.155Z,101454.00
2022-11-05T17:03:18.516Z,101471.59
2022-11-05T17:05:46.567Z,101485.69
2022-11-05T17:08:15.447Z,101469.59
2022-11-05T17:10:44.060Z,101480.22
2022-11-05T17:13:15.233Z,101484.31
2022-11-05T17:15:44.106Z,101480.19
2022-11-05T17:18:18.105Z,101496.56
2022-11-05T17:20:48.502Z,101493.63
2022-11-05T17:23:18.537Z,101487.16
2022-11-05T17:25:49.766Z,101495.78
2022-11-05T17:28:18.248Z,101491.63
2022-11-05T17:30:52.298Z,101498.97
2022-11-05T17:33:23.502Z,101506.06
2022-11-05T17:35:52.444Z,101504.56
2022-11-05T17:38:20.909Z,101507.00
2022-11-05T17:40:48.675Z,101499.69
2022-11-05T17:43:16.493Z,101511.53
2022-11-05T17:45:45.169Z,101502.09
2022-11-05T17:48:13.750Z,101510.63
2022-11-05T17:50:44.227Z,101511.97
2022-11-05T17:53:13.617Z,101508.16
2022-11-05T17:55:42.537Z,101505.88
2022-11-05T17:58:10.673Z,101509.47
2022-11-05T18:00:39.246Z,101509.41
2022-11-05T18:03:06.846Z,101519.53
2022-11-05T18:05:35.600Z,101496.38
2022-11-05T18:08:05.410Z,101514.50
2022-11-05T18:10:33.669Z,101523.13
2022-11-05T18:13:01.264Z,101510.09
2022-11-05T18:15:29.247Z,101506.97
2022-11-05T18:17:56.893Z,101513.59
2022-11-05T18:20:24.624Z,101510.19
2022-11-05T18:22:52.555Z,101480.03
2022-11-05T18:25:21.524Z,101507.47
2022-11-05T18:27:49.288Z,101508.50
2022-11-05T18:30:16.952Z,101517.03
2022-11-05T18:32:45.413Z,101507.84
2022-11-05T18:35:14.602Z,101507.56
2022-11-05T18:37:42.303Z,101507.59
2022-11-05T18:40:10.891Z,101513.66
2022-11-05T18:42:39.841Z,101499.09
2022-11-05T18:45:09.238Z,101502.47
2022-11-05T18:47:37.072Z,101497.84
2022-11-05T18:50:06.270Z,101498.91
2022-11-05T18:52:34.030Z,101497.06
2022-11-05T18:55:01.664Z,101469.88
2022-11-05T18:57:29.576Z,101479.97
2022-11-05T18:59:58.631Z,101485.09
2022-11-05T19:02:26.612Z,101475.06
2022-11-05T19:05:27.392Z,101491.31
2022-11-05T19:07:41.882Z,101494.03
2022-11-05T19:10:10.350Z,101500.78
2022-11-05T19:12:37.982Z,101494.31
2022-11-05T19:15:08.323Z,101492.88
2022-11-05T19:17:36.619Z,101481.00
2022-11-05T19:20:05.381Z,101489.47
2022-11-05T19:22:33.166Z,101483.91
2022-11-05T19:25:01.505Z,101490.72
2022-11-05T19:27:29.309Z,101499.72
2022-11-05T19:29:56.940Z,101486.72
2022-11-05T19:32:25.927Z,101496.09
2022-11-05T19:34:53.481Z,101499.03
2022-11-05T19:37:21.024Z,101483.19
2022-11-05T19:39:48.634Z,101492.28
2022-11-05T19:42:16.312Z,101489.91
2022-11-05T19:44:44.122Z,101498.06
2022-11-05T19:47:11.984Z,101495.50
2022-11-05T19:49:41.127Z,101498.78
2022-11-05T19:52:08.697Z,101499.69
2022-11-05T19:54:36.460Z,101501.94
2022-11-05T19:57:04.163Z,101493.63
2022-11-05T19:59:32.209Z,101475.81
2022-11-05T20:01:59.946Z,101477.91
2022-11-05T20:04:27.756Z,101390.59
2022-11-05T20:06:56.727Z,101476.81
2022-11-05T20:09:24.584Z,101488.78
2022-11-05T20:11:54.143Z,101489.66
2022-11-05T20:14:21.910Z,101454.56
2022-11-05T20:16:50.293Z,101495.41
2022-11-05T20:19:20.066Z,101488.25
2022-11-05T20:21:47.779Z,101487.97
2022-11-05T20:24:24.052Z,101486.78
2022-11-05T20:26:53.024Z,101481.22
2022-11-05T20:29:20.653Z,101487.97
2022-11-05T20:31:48.471Z,101493.69
2022-11-05T20:34:16.024Z,101492.81
2022-11-05T20:36:43.629Z,101490.88
2022-11-05T20:39:11.951Z,101483.78
2022-11-05T20:41:40.856Z,101494.09
2022-11-05T20:44:08.447Z,101496.56
2022-11-05T20:46:36.181Z,101498.25
2022-11-05T20:49:03.806Z,101492.31
2022-11-05T20:51:31.475Z,101487.53
2022-11-05T20:54:00.692Z,101486.22
2022-11-05T20:56:30.367Z,101487.56
2022-11-05T20:59:00.494Z,101493.06
2022-11-05T21:01:29.984Z,101480.31
2022-11-05T21:03:59.528Z,101461.81
2022-11-05T21:06:27.518Z,101473.84
2022-11-05T21:08:55.357Z,101472.13
2022-11-05T21:11:23.190Z,101482.72
2022-11-05T21:13:51.104Z,101486.91
2022-11-05T21:16:20.847Z,101486.97
2022-11-05T21:18:48.930Z,101448.88
2022-11-05T21:21:19.425Z,101472.06
2022-11-05T21:23:47.050Z,101480.00
2022-11-05T21:26:16.927Z,101479.34
2022-11-05T21:28:44.605Z,101482.41
2022-11-05T21:31:12.408Z,101457.75
2022-11-05T21:33:41.665Z,101480.03
2022-11-05T21:36:11.591Z,101477.19
2022-11-05T21:38:39.836Z,101466.13
2022-11-05T21:41:08.755Z,101463.63
2022-11-05T21:43:36.371Z,101459.34
2022-11-05T21:46:05.289Z,101467.53
2022-11-05T21:48:34.385Z,101453.47
2022-11-05T21:51:35.464Z,101449.09
2022-11-05T21:54:20.506Z,101451.31
2022-11-05T21:57:09.800Z,101448.06
2022-11-05T21:59:51.907Z,101442.44
2022-11-05T22:02:21.596Z,101450.91
2022-11-05T22:04:51.168Z,101460.56
2022-11-05T22:07:21.571Z,101450.75
2022-11-05T22:09:49.841Z,101449.47
2022-11-05T22:12:17.592Z,101440.84
2022-11-05T22:14:45.253Z,101447.69
2022-11-05T22:17:13.609Z,101436.47
2022-11-05T22:19:41.180Z,101435.50
2022-11-05T22:22:08.820Z,101426.00
2022-11-05T22:24:38.233Z,101429.44
2022-11-05T22:27:07.890Z,101425.91
2022-11-05T22:29:36.705Z,101428.91
2022-11-05T22:32:04.953Z,101432.22
2022-11-05T22:34:32.574Z,101422.03
2022-11-05T22:37:00.268Z,101424.41
2022-11-05T22:39:27.990Z,101420.75
2022-11-05T22:41:58.370Z,101417.09
2022-11-05T22:44:27.914Z,101412.66
2022-11-05T22:46:56.067Z,101415.16
2022-11-05T22:49:24.016Z,101412.06
2022-11-05T22:51:51.830Z,101416.50
2022-11-05T22:54:19.631Z,101374.53
2022-11-05T22:56:48.187Z,101425.03
2022-11-05T22:59:17.424Z,101434.47
2022-11-05T23:01:46.173Z,101412.63
2022-11-05T23:04:14.916Z,101410.38
2022-11-05T23:07:00.815Z,101391.47
2022-11-05T23:09:48.730Z,101419.00
2022-11-05T23:12:26.322Z,101407.00
2022-11-05T23:14:56.755Z,101381.34
2022-11-05T23:17:53.320Z,101396.63
2022-11-05T23:20:41.434Z,101400.28
2022-11-05T23:23:28.648Z,101403.78
2022-11-05T23:25:57.875Z,101395.75
2022-11-05T23:28:25.610Z,101397.44
2022-11-05T23:31:12.321Z,101344.44
2022-11-05T23:33:39.920Z,101382.84
2022-11-05T23:36:25.630Z,101378.81
2022-11-05T23:38:53.245Z,101374.66
2022-11-05T23:41:38.429Z,101367.50
2022-11-05T23:44:23.862Z,101380.31
2022-11-05T23:47:10.432Z,101377.88
2022-11-05T23:49:38.025Z,101359.66
2022-11-05T23:52:05.699Z,101364.53
2022-11-05T23:54:33.277Z,101362.72
2022-11-05T23:57:00.862Z,101354.88
2022-11-05T23:59:28.435Z,101352.22
